TimePST,TemperatureF,Dew PointF,Humidity,Sea Level PressureIn,VisibilityMPH,Wind Direction,Wind SpeedMPH,Gust SpeedMPH,PrecipitationIn,Events,Conditions,WindDirDegrees,DateUTC
12:53 AM,46.0,42.1,86,30.35,9.0,SE,6.9,-,N/A,,Overcast,140,2013-02-12 08:53:00
1:53 AM,46.0,43.0,89,30.35,3.0,SSE,4.6,-,N/A,,Overcast,150,2013-02-12 09:53:00
2:01 AM,46.4,42.8,87,30.35,4.0,SSE,6.9,-,N/A,,Overcast,150,2013-02-12 10:01:00
2:53 AM,46.9,42.1,83,30.36,10.0,South,4.6,-,N/A,,Overcast,190,2013-02-12 10:53:00
3:48 AM,46.4,42.8,87,30.36,7.0,South,3.5,-,N/A,,Overcast,170,2013-02-12 11:48:00
3:53 AM,46.9,43.0,86,30.36,10.0,SSE,4.6,-,N/A,,Overcast,160,2013-02-12 11:53:00
4:53 AM,46.0,43.0,89,30.36,7.0,SSE,6.9,-,N/A,,Overcast,150,2013-02-12 12:53:00
5:53 AM,46.9,43.0,86,30.36,7.0,SE,8.1,-,N/A,,Overcast,140,2013-02-12 13:53:00
6:28 AM,46.4,42.8,87,30.37,3.0,SE,8.1,-,N/A,,Overcast,140,2013-02-12 14:28:00
6:53 AM,46.0,43.0,89,30.37,3.0,SE,8.1,-,N/A,,Overcast,140,2013-02-12 14:53:00
7:53 AM,46.9,44.1,90,30.38,5.0,SSE,6.9,-,N/A,,Overcast,150,2013-02-12 15:53:00
8:53 AM,48.0,44.1,86,30.38,10.0,SSE,8.1,-,N/A,,Overcast,150,2013-02-12 16:53:00
9:02 AM,48.2,44.6,87,30.39,10.0,SSE,9.2,-,N/A,,Overcast,150,2013-02-12 17:02:00
9:04 AM,48.2,42.8,82,30.39,10.0,SSE,8.1,-,N/A,,Overcast,160,2013-02-12 17:04:00
9:35 AM,46.4,44.6,93,30.39,2.0,SSE,6.9,-,N/A,,Overcast,160,2013-02-12 17:35:00
9:53 AM,46.9,44.1,90,30.39,4.0,SSE,5.8,-,N/A,,Overcast,150,2013-02-12 17:53:00
10:49 AM,48.2,42.8,82,30.40,10.0,SSE,6.9,-,N/A,,Overcast,160,2013-02-12 18:49:00
10:53 AM,48.0,43.0,83,30.40,10.0,SSE,4.6,-,N/A,,Overcast,160,2013-02-12 18:53:00
11:53 AM,48.9,44.1,83,30.39,10.0,South,4.6,-,N/A,,Overcast,170,2013-02-12 19:53:00
12:53 PM,50.0,44.1,80,30.37,10.0,South,6.9,-,N/A,,Overcast,170,2013-02-12 20:53:00
1:53 PM,50.0,44.1,80,30.36,10.0,Variable,5.8,-,N/A,,Overcast,0,2013-02-12 21:53:00
2:53 PM,51.1,44.1,77,30.33,10.0,SSE,11.5,-,N/A,,Overcast,160,2013-02-12 22:53:00
3:53 PM,52.0,43.0,71,30.34,10.0,South,13.8,21.9,N/A,,Overcast,180,2013-02-12 23:53:00
4:53 PM,52.0,43.0,71,30.33,10.0,SSW,15.0,23.0,N/A,,Mostly Cloudy,210,2013-02-13 00:53:00
5:53 PM,51.1,43.0,74,30.33,10.0,South,11.5,24.2,N/A,,Overcast,190,2013-02-13 01:53:00
6:53 PM,51.1,44.1,77,30.32,10.0,South,11.5,23.0,N/A,,Overcast,190,2013-02-13 02:53:00
7:02 PM,51.8,42.8,71,30.32,10.0,South,10.4,25.3,N/A,,Overcast,190,2013-02-13 03:02:00
7:53 PM,51.1,43.0,74,30.32,10.0,South,11.5,19.6,N/A,,Mostly Cloudy,190,2013-02-13 03:53:00
8:53 PM,51.1,43.0,74,30.31,10.0,SSW,13.8,21.9,N/A,,Mostly Cloudy,200,2013-02-13 04:53:00
9:53 PM,50.0,43.0,77,30.30,10.0,South,11.5,20.7,N/A,,Mostly Cloudy,190,2013-02-13 05:53:00
10:31 PM,50.0,42.8,76,30.30,10.0,South,17.3,26.5,N/A,,Scattered Clouds,190,2013-02-13 06:31:00
10:53 PM,50.0,43.0,77,30.30,10.0,South,15.0,23.0,N/A,,Scattered Clouds,190,2013-02-13 06:53:00
11:28 PM,50.0,42.8,76,30.30,10.0,South,10.4,19.6,N/A,,Mostly Cloudy,170,2013-02-13 07:28:00
11:53 PM,50.0,43.0,77,30.29,10.0,South,12.7,21.9,N/A,,Overcast,170,2013-02-13 07:53:00